Time;durP1;ratioP1;P1;durP2;ratioP2;P2;SDS_P1;SDS_P2;PMS_P1;PMS_P2;Temp;Humidity;BMP_temperature;BMP_pressure;BME280_temperature;BME280_humidity;BME280_pressure;Samples;Min_cycle;Max_cycle;Signal;HPM_P1;HPM_P2
2022/05/18 00:00:49;;;;;;;10.27;8.27;;;512.20;2380.80;;;;;;5091976;28;20369;-67
2022/05/18 00:03:19;;;;;;;9.65;8.50;;;512.20;2380.80;;;;;;5092472;28;20365;-67
2022/05/18 00:05:45;;;;;;;10.97;8.83;;;512.20;2380.80;;;;;;5091994;28;20518;-66
2022/05/18 00:08:12;;;;;;;10.93;9.10;;;512.10;2380.80;;;;;;5091954;28;20458;-65
2022/05/18 00:10:40;;;;;;;11.52;8.73;;;512.30;2380.80;;;;;;5091970;28;20373;-67
2022/05/18 00:13:07;;;;;;;9.57;8.13;;;512.40;2380.80;;;;;;5091931;28;20849;-67
2022/05/18 00:15:33;;;;;;;10.18;9.07;;;512.40;2380.80;;;;;;5091885;28;20369;-67
2022/05/18 00:17:58;;;;;;;10.00;8.63;;;512.50;2380.80;;;;;;5073797;28;20439;-67
2022/05/18 00:20:24;;;;;;;10.10;8.82;;;512.50;2380.80;;;;;;5091723;28;20400;-66
2022/05/18 00:22:53;;;;;;;10.88;8.73;;;512.50;2380.80;;;;;;5091782;28;20796;-67
2022/05/18 00:25:24;;;;;;;10.10;9.05;;;512.30;2380.80;;;;;;5091786;28;20372;-67
2022/05/18 00:27:51;;;;;;;13.88;9.48;;;512.30;2380.80;;;;;;5091968;28;20870;-66
2022/05/18 00:30:18;;;;;;;10.93;9.13;;;512.40;2380.80;;;;;;5091836;28;20385;-66
2022/05/18 00:32:45;;;;;;;9.80;8.80;;;512.30;2380.80;;;;;;5091655;28;20490;-67
2022/05/18 00:35:12;;;;;;;10.88;9.77;;;512.20;2380.80;;;;;;5091762;28;20375;-66
2022/05/18 00:37:38;;;;;;;11.63;10.32;;;512.20;2380.80;;;;;;5091501;28;20385;-67
2022/05/18 00:40:06;;;;;;;11.00;9.87;;;512.30;2380.80;;;;;;5073577;28;20446;-66
2022/05/18 00:42:32;;;;;;;11.35;10.07;;;512.20;2380.80;;;;;;5094025;28;20364;-66
2022/05/18 00:44:58;;;;;;;12.07;10.68;;;512.10;2380.80;;;;;;5095298;28;20369;-68
2022/05/18 00:47:24;;;;;;;11.88;10.63;;;512.10;2380.80;;;;;;5095582;28;20364;-66
2022/05/18 00:49:55;;;;;;;15.45;11.50;;;512.00;2380.80;;;;;;5095133;28;20395;-68
2022/05/18 00:52:27;;;;;;;14.05;11.50;;;512.00;2380.80;;;;;;5095450;28;20368;-66
2022/05/18 00:54:55;;;;;;;13.25;11.40;;;512.10;2380.80;;;;;;5095963;28;20778;-66
2022/05/18 00:57:34;;;;;;;12.75;11.15;;;512.10;2380.80;;;;;;5095161;28;20360;-68
2022/05/18 01:00:08;;;;;;;12.55;11.32;;;512.00;2380.80;;;;;;5095036;28;20408;-68
2022/05/18 01:02:39;;;;;;;12.43;11.07;;;512.00;2380.80;;;;;;5095318;28;20368;-68
2022/05/18 01:05:10;;;;;;;12.43;10.85;;;487.30;2380.80;;;;;;5094906;28;20364;-67
2022/05/18 01:07:44;;;;;;;13.07;11.20;;;487.30;2380.80;;;;;;5076743;28;20379;-67
2022/05/18 01:10:11;;;;;;;12.30;11.00;;;487.30;2380.80;;;;;;5094801;28;20923;-67
2022/05/18 01:12:37;;;;;;;15.27;11.82;;;487.30;2380.80;;;;;;5094934;28;20369;-67
2022/05/18 01:15:09;;;;;;;12.13;10.93;;;487.30;2380.80;;;;;;5095364;28;20372;-67
2022/05/18 01:17:38;;;;;;;13.65;11.77;;;487.30;2380.80;;;;;;5094745;28;20361;-65
2022/05/18 01:20:08;;;;;;;12.82;11.45;;;487.30;2380.80;;;;;;5094760;28;20787;-66
2022/05/18 01:22:43;;;;;;;13.65;11.50;;;512.00;2380.80;;;;;;5095010;28;20379;-67
2022/05/18 01:25:29;;;;;;;14.45;11.02;;;487.20;2380.80;;;;;;5094619;28;20369;-67
2022/05/18 01:27:58;;;;;;;11.10;10.00;;;487.10;2380.80;;;;;;5094629;28;20388;-67
2022/05/18 01:30:26;;;;;;;13.15;10.65;;;487.00;2380.80;;;;;;5076303;28;20376;-67
2022/05/18 01:32:54;;;;;;;11.85;10.07;;;487.00;2380.80;;;;;;5094428;28;20397;-66
2022/05/18 01:35:31;;;;;;;12.77;9.50;;;486.90;2380.80;;;;;;5094350;28;20745;-66
2022/05/18 01:37:57;;;;;;;11.10;9.00;;;486.90;2380.80;;;;;;5094179;28;20459;-67
2022/05/18 01:40:43;;;;;;;11.48;8.55;;;486.80;2380.80;;;;;;5094730;28;20487;-68
2022/05/18 01:43:30;;;;;;;11.13;8.40;;;486.80;2380.80;;;;;;5094169;28;20368;-66
2022/05/18 01:46:01;;;;;;;12.07;7.55;;;486.70;2380.80;;;;;;5094627;28;20376;-66
2022/05/18 01:48:37;;;;;;;11.63;7.22;;;486.60;2380.80;;;;;;5094509;28;20729;-67
2022/05/18 01:51:05;;;;;;;11.68;7.40;;;486.50;2380.80;;;;;;5093946;28;20357;-65
2022/05/18 01:53:32;;;;;;;13.50;7.07;;;486.50;2380.80;;;;;;5092805;28;20372;-67
2022/05/18 01:55:58;;;;;;;9.93;7.05;;;486.40;2380.80;;;;;;5093849;28;20375;-66
2022/05/18 01:58:24;;;;;;;10.67;6.73;;;486.40;2380.80;;;;;;5093763;28;20373;-65
2022/05/18 02:00:52;;;;;;;10.77;7.15;;;486.40;2380.80;;;;;;5094121;28;20415;-65
2022/05/18 02:03:19;;;;;;;8.77;6.78;;;461.70;2380.80;;;;;;5093717;28;20375;-65
2022/05/18 02:05:45;;;;;;;11.35;7.45;;;461.60;2380.80;;;;;;5093712;28;20389;-65
2022/05/18 02:08:12;;;;;;;9.65;7.50;;;461.70;2380.80;;;;;;5093859;28;20364;-65
2022/05/18 02:10:38;;;;;;;8.98;7.10;;;461.70;2380.80;;;;;;5093634;28;20380;-67
2022/05/18 02:13:05;;;;;;;9.15;6.70;;;461.70;2380.80;;;;;;5093521;28;20360;-66
2022/05/18 02:15:31;;;;;;;10.98;6.80;;;461.70;2380.80;;;;;;5093551;28;20376;-65
2022/05/18 02:17:57;;;;;;;8.38;6.32;;;461.70;2380.80;;;;;;5093564;28;20376;-66
2022/05/18 02:20:23;;;;;;;6.72;5.70;;;486.40;2380.80;;;;;;5093381;28;20400;-66
2022/05/18 02:22:49;;;;;;;10.43;6.10;;;461.70;2380.80;;;;;;5093459;28;20859;-65
2022/05/18 02:25:15;;;;;;;9.15;5.88;;;461.70;2380.80;;;;;;5093640;28;20388;-65
2022/05/18 02:27:41;;;;;;;9.30;5.93;;;461.60;2380.80;;;;;;5093337;28;20360;-65
2022/05/18 02:30:08;;;;;;;7.53;5.63;;;461.60;2380.80;;;;;;5093859;28;20375;-65
2022/05/18 02:32:34;;;;;;;7.75;5.45;;;461.60;2380.80;;;;;;5093501;28;20373;-65
2022/05/18 02:35:00;;;;;;;9.10;5.80;;;461.70;2380.80;;;;;;5074998;28;20429;-65
2022/05/18 02:37:26;;;;;;;7.82;5.68;;;461.50;2380.80;;;;;;5092967;28;20872;-65
2022/05/18 02:39:53;;;;;;;7.82;5.70;;;461.60;2380.80;;;;;;5074860;28;20439;-67
2022/05/18 02:42:18;;;;;;;8.07;5.93;;;461.60;2380.80;;;;;;5093084;28;20364;-65
2022/05/18 02:44:44;;;;;;;6.75;5.45;;;461.50;2380.80;;;;;;5093003;28;20383;-65
2022/05/18 02:47:10;;;;;;;6.73;5.47;;;461.50;2380.80;;;;;;5093006;28;20411;-65
2022/05/18 02:49:36;;;;;;;8.07;5.30;;;461.50;2380.80;;;;;;5092999;28;20376;-65
2022/05/18 02:52:02;;;;;;;8.20;5.67;;;461.50;2380.80;;;;;;5093305;28;20368;-66
2022/05/18 02:57:12;;;;;;;7.32;5.28;;;461.30;2380.80;;;;;;5092843;28;20409;-66
2022/05/18 02:59:39;;;;;;;8.48;5.60;;;461.40;2380.80;;;;;;5092681;28;20392;-67
2022/05/18 03:02:05;;;;;;;9.05;5.30;;;461.30;2380.80;;;;;;5093137;28;20373;-64
2022/05/18 03:04:32;;;;;;;7.25;5.30;;;461.20;2380.80;;;;;;5092915;28;20391;-65
2022/05/18 03:06:59;;;;;;;8.23;5.38;;;461.30;2380.80;;;;;;5092647;28;20368;-65
2022/05/18 03:09:25;;;;;;;8.98;5.80;;;461.20;2380.80;;;;;;5092624;28;20365;-65
2022/05/18 03:11:51;;;;;;;8.65;5.72;;;461.20;2380.80;;;;;;5092811;28;20479;-65
2022/05/18 03:14:17;;;;;;;7.57;5.28;;;461.20;2380.80;;;;;;5092543;28;20900;-65
2022/05/18 03:16:44;;;;;;;9.15;5.68;;;461.20;2380.80;;;;;;5092908;28;20381;-64
2022/05/18 03:19:11;;;;;;;8.05;5.22;;;461.20;2380.80;;;;;;5092477;28;20397;-65
2022/05/18 03:24:21;;;;;;;6.90;5.40;;;461.20;2380.80;;;;;;5092448;28;20872;-64
2022/05/18 03:26:47;;;;;;;7.15;5.38;;;461.10;2380.80;;;;;;5092505;28;20376;-64
2022/05/18 03:29:13;;;;;;;6.83;5.00;;;461.20;2380.80;;;;;;5092641;28;20737;-65
2022/05/18 03:31:39;;;;;;;8.15;4.88;;;461.10;2380.80;;;;;;5092338;28;20838;-67
2022/05/18 03:34:05;;;;;;;7.10;4.90;;;461.20;2380.80;;;;;;5092303;28;20391;-66
2022/05/18 03:36:32;;;;;;;9.10;4.90;;;461.20;2380.80;;;;;;5074011;28;20466;-65
2022/05/18 03:38:58;;;;;;;7.17;4.57;;;461.10;2380.80;;;;;;5092599;28;20400;-65
2022/05/18 03:41:24;;;;;;;7.30;4.47;;;461.10;2380.80;;;;;;5092243;28;20856;-64
2022/05/18 03:43:50;;;;;;;6.87;4.50;;;461.20;2380.80;;;;;;5092199;28;20368;-64
2022/05/18 03:46:16;;;;;;;7.28;4.63;;;461.10;2380.80;;;;;;5092484;28;20364;-64
2022/05/18 03:48:42;;;;;;;7.45;4.93;;;461.10;2380.80;;;;;;5092140;28;20376;-64
2022/05/18 03:51:09;;;;;;;6.87;4.50;;;461.10;2380.80;;;;;;5092200;28;20376;-65
2022/05/18 03:53:35;;;;;;;6.90;4.30;;;461.10;2380.80;;;;;;5092099;28;20879;-66
2022/05/18 03:56:02;;;;;;;6.05;3.83;;;461.20;2380.80;;;;;;5092096;28;20371;-64
2022/05/18 03:58:28;;;;;;;6.97;4.35;;;461.10;2380.80;;;;;;5073894;28;20938;-65
2022/05/18 04:00:55;;;;;;;5.45;4.03;;;461.20;2380.80;;;;;;5092179;28;20415;-66
2022/05/18 04:03:24;;;;;;;6.95;3.63;;;461.10;2380.80;;;;;;5092003;28;20364;-64
2022/05/18 04:05:52;;;;;;;7.32;3.60;;;461.20;2380.80;;;;;;5092285;28;20461;-66
2022/05/18 04:08:18;;;;;;;6.47;4.03;;;461.30;2380.80;;;;;;5092130;28;20364;-65
2022/05/18 04:10:43;;;;;;;6.75;3.60;;;461.40;2380.80;;;;;;5091999;28;20472;-65
2022/05/18 04:13:19;;;;;;;4.60;3.20;;;461.40;2380.80;;;;;;5073815;28;20404;-65
2022/05/18 04:15:45;;;;;;;7.20;3.45;;;461.50;2380.80;;;;;;5092003;28;20364;-65
2022/05/18 04:18:11;;;;;;;5.13;3.45;;;461.50;2380.80;;;;;;5095456;28;20369;-65
2022/05/18 04:20:38;;;;;;;6.28;3.60;;;461.40;2380.80;;;;;;5096337;28;20388;-65
2022/05/18 04:23:05;;;;;;;4.20;3.10;;;461.40;2380.80;;;;;;5095787;28;20361;-65
2022/05/18 04:25:30;;;;;;;8.57;3.25;;;461.40;2380.80;;;;;;5095919;28;20414;-65
2022/05/18 04:27:57;;;;;;;7.57;3.00;;;461.50;2380.80;;;;;;5095676;28;20369;-64
2022/05/18 04:30:25;;;;;;;9.57;3.30;;;461.50;2380.80;;;;;;5095609;28;20472;-65
2022/05/18 04:32:52;;;;;;;8.88;3.17;;;461.40;2380.80;;;;;;5095595;28;20417;-66
2022/05/18 04:35:21;;;;;;;6.00;3.08;;;461.40;2380.80;;;;;;5096038;28;20433;-67
2022/05/18 04:37:47;;;;;;;4.65;2.90;;;461.50;2380.80;;;;;;5095256;28;20392;-66
2022/05/18 04:40:14;;;;;;;5.53;2.92;;;461.50;2380.80;;;;;;5095363;28;20726;-67
2022/05/18 04:42:40;;;;;;;7.15;2.95;;;461.70;2380.80;;;;;;5095645;28;20387;-66
2022/05/18 04:45:08;;;;;;;6.85;2.50;;;486.50;2380.80;;;;;;5095321;28;20757;-65
2022/05/18 04:47:35;;;;;;;8.00;2.70;;;486.70;2380.80;;;;;;5095236;28;20880;-67
2022/05/18 04:50:01;;;;;;;7.80;2.70;;;486.90;2380.80;;;;;;5095148;28;20397;-67
2022/05/18 04:52:28;;;;;;;6.75;2.28;;;487.00;2380.80;;;;;;5095712;28;20474;-67
2022/05/18 04:54:54;;;;;;;6.25;1.92;;;487.20;2380.80;;;;;;5095356;28;20433;-66
2022/05/18 04:57:20;;;;;;;7.87;2.40;;;487.20;2380.80;;;;;;5095171;28;20539;-66
2022/05/18 04:59:47;;;;;;;6.40;2.38;;;487.30;2380.80;;;;;;5094897;28;20400;-67
2022/05/18 05:02:14;;;;;;;6.60;2.10;;;512.00;2380.80;;;;;;5094940;28;20364;-69
2022/05/18 05:04:40;;;;;;;7.20;2.10;;;512.00;2380.80;;;;;;5094915;28;20381;-68
2022/05/18 05:07:06;;;;;;;7.63;2.53;;;487.20;2380.80;;;;;;5094805;28;20371;-68
2022/05/18 05:09:32;;;;;;;6.32;2.00;;;487.20;2380.80;;;;;;5076583;28;20384;-68
2022/05/18 05:11:58;;;;;;;6.87;2.00;;;487.20;2380.80;;;;;;5095056;28;20367;-68
2022/05/18 05:14:24;;;;;;;5.57;2.20;;;487.10;2380.80;;;;;;5094638;28;20447;-68
2022/05/18 05:16:50;;;;;;;5.78;2.03;;;487.00;2380.80;;;;;;5094606;28;20403;-68
2022/05/18 05:19:17;;;;;;;5.05;2.10;;;487.00;2380.80;;;;;;5094764;28;20392;-67
2022/05/18 05:21:43;;;;;;;3.83;1.80;;;486.90;2380.80;;;;;;5094583;28;20374;-67
2022/05/18 05:24:11;;;;;;;7.93;2.05;;;486.90;2380.80;;;;;;5094511;28;20379;-67
2022/05/18 05:26:37;;;;;;;7.38;2.42;;;486.80;2380.80;;;;;;5094322;28;20381;-67
2022/05/18 05:29:04;;;;;;;10.13;2.22;;;486.60;2380.80;;;;;;5094070;28;20368;-68
2022/05/18 05:31:30;;;;;;;4.13;1.77;;;486.60;2380.80;;;;;;5094279;28;20380;-68
2022/05/18 05:33:57;;;;;;;3.90;1.83;;;486.60;2380.80;;;;;;5094390;28;20905;-68
2022/05/18 05:36:23;;;;;;;4.85;1.42;;;486.50;2380.80;;;;;;5094130;28;20741;-68
2022/05/18 05:38:49;;;;;;;12.80;2.08;;;486.50;2329.60;;;;;;5094153;28;20428;-68
2022/05/18 05:41:16;;;;;;;6.55;1.60;;;486.50;2304.00;;;;;;5094288;28;20419;-68
2022/05/18 05:43:42;;;;;;;8.25;1.83;;;486.60;2278.40;;;;;;5075985;28;20381;-68
2022/05/18 05:46:13;;;;;;;5.07;1.70;;;486.60;2252.80;;;;;;5094112;28;20872;-68
2022/05/18 05:48:41;;;;;;;3.72;1.50;;;486.50;2252.80;;;;;;5094041;28;20368;-68
2022/05/18 05:51:12;;;;;;;8.63;1.40;;;486.60;2252.80;;;;;;5094010;28;20360;-67
2022/05/18 05:53:39;;;;;;;6.63;1.67;;;486.50;2176.00;;;;;;5094024;28;20775;-68
2022/05/18 05:56:06;;;;;;;7.63;1.70;;;486.50;2124.80;;;;;;5093901;28;20737;-68
2022/05/18 05:58:35;;;;;;;5.32;1.50;;;486.60;2073.60;;;;;;5093766;28;20849;-71
2022/05/18 06:01:02;;;;;;;5.90;1.40;;;486.70;2124.80;;;;;;5093742;28;20380;-71
2022/05/18 06:03:27;;;;;;;7.35;1.50;;;486.60;2048.00;;;;;;5093713;28;20392;-69
2022/05/18 06:05:55;;;;;;;4.73;1.30;;;486.60;2048.00;;;;;;5093790;28;20853;-67
2022/05/18 06:08:21;;;;;;;5.68;1.40;;;486.80;2073.60;;;;;;5093657;28;20447;-69
2022/05/18 06:10:47;;;;;;;8.48;1.52;;;486.70;1996.80;;;;;;5093557;28;20737;-67
2022/05/18 06:13:13;;;;;;;7.25;1.80;;;486.70;1971.20;;;;;;5093386;28;20369;-71
2022/05/18 06:15:39;;;;;;;6.68;1.40;;;486.70;1894.40;;;;;;5093807;28;20732;-67
2022/05/18 06:18:05;;;;;;;4.35;1.27;;;486.70;1920.00;;;;;;5093974;28;20384;-66
2022/05/18 06:20:32;;;;;;;4.82;1.25;;;486.70;1894.40;;;;;;5093273;28;20396;-68
2022/05/18 06:22:59;;;;;;;6.20;1.10;;;486.80;1894.40;;;;;;5093335;28;20373;-68
2022/05/18 06:25:25;;;;;;;6.90;1.20;;;486.90;1868.80;;;;;;5093183;28;20425;-69
2022/05/18 06:27:51;;;;;;;4.25;1.17;;;486.90;1843.20;;;;;;5075048;28;20433;-69
2022/05/18 06:30:17;;;;;;;2.40;1.25;;;487.00;1843.20;;;;;;5093313;28;20372;-69
2022/05/18 06:32:43;;;;;;;4.38;1.30;;;487.10;1868.80;;;;;;5093471;28;20499;-70
2022/05/18 06:35:09;;;;;;;4.43;1.20;;;487.10;1817.60;;;;;;5074932;28;20408;-69
2022/05/18 06:37:35;;;;;;;9.05;1.63;;;487.10;1766.40;;;;;;5092668;28;20911;-70
2022/05/18 06:40:08;;;;;;;4.20;1.10;;;487.10;1715.20;;;;;;5092295;28;20483;-70
2022/05/18 06:42:35;;;;;;;2.70;1.23;;;487.10;1715.20;;;;;;5092964;28;20447;-66
2022/05/18 06:45:03;;;;;;;4.78;1.55;;;487.20;1792.00;;;;;;5093004;28;20790;-68
2022/05/18 06:47:29;;;;;;;4.68;1.50;;;487.20;1740.80;;;;;;5092935;28;20725;-68
2022/05/18 06:49:55;;;;;;;4.55;1.10;;;487.20;1664.00;;;;;;5092811;28;20377;-69
2022/05/18 06:52:21;;;;;;;6.40;1.17;;;487.30;1664.00;;;;;;5092861;28;20707;-68
2022/05/18 06:54:47;;;;;;;6.15;1.35;;;512.00;1612.80;;;;;;5092693;28;20384;-69
2022/05/18 06:57:13;;;;;;;8.20;1.15;;;512.00;1561.60;;;;;;5092704;28;20380;-69
2022/05/18 06:59:39;;;;;;;5.55;1.30;;;512.00;1536.00;;;;;;5092637;28;20392;-68
2022/05/18 07:02:06;;;;;;;6.43;1.27;;;512.30;1587.20;;;;;;5092628;28;20371;-71
2022/05/18 07:04:32;;;;;;;5.13;1.20;;;512.20;1510.40;;;;;;5092889;28;20732;-69
2022/05/18 07:07:00;;;;;;;3.93;1.07;;;512.40;1484.80;;;;;;5074438;28;20418;-70
2022/05/18 07:09:27;;;;;;;4.75;1.10;;;512.40;1459.20;;;;;;5092731;28;20367;-71
2022/05/18 07:11:53;;;;;;;11.68;1.52;;;512.50;1433.60;;;;;;5092510;28;20368;-69
2022/05/18 07:14:26;;;;;;;6.55;1.20;;;512.60;1408.00;;;;;;5092485;28;20401;-68
2022/05/18 07:16:52;;;;;;;3.17;1.10;;;512.80;1356.80;;;;;;5092521;28;20420;-70
2022/05/18 07:19:19;;;;;;;6.47;1.00;;;537.60;1433.60;;;;;;5092608;28;20722;-70
2022/05/18 07:21:45;;;;;;;3.22;1.00;;;512.90;1356.80;;;;;;5074375;28;20463;-71
2022/05/18 07:24:11;;;;;;;8.23;1.40;;;537.60;1433.60;;;;;;5092447;28;20371;-70
2022/05/18 07:26:37;;;;;;;4.05;1.10;;;538.10;1382.40;;;;;;5092310;28;20449;-69
2022/05/18 07:29:05;;;;;;;5.35;1.50;;;563.20;1356.80;;;;;;5092373;28;20423;-70
2022/05/18 07:32:08;;;;;;;5.68;1.10;;;538.10;1305.60;;;;;;5092332;28;20398;-69
2022/05/18 07:34:18;;;;;;;2.92;1.00;;;563.60;1382.40;;;;;;5092060;28;20467;-68
2022/05/18 07:36:44;;;;;;;8.55;1.77;;;564.10;1331.20;;;;;;5091457;28;20560;-69
2022/05/18 07:39:11;;;;;;;7.38;1.20;;;588.80;1280.00;;;;;;5072203;28;20406;-69
2022/05/18 07:41:38;;;;;;;3.90;1.20;;;588.90;1280.00;;;;;;5071926;28;20398;-68
2022/05/18 07:44:04;;;;;;;4.07;1.10;;;;;;;;;;5073298;28;20877;-71
2022/05/18 07:46:30;;;;;;;5.63;1.58;;;589.50;1408.00;;;;;;5073427;28;20383;-69
2022/05/18 07:48:56;;;;;;;7.95;1.23;;;589.40;1280.00;;;;;;5091673;28;20756;-69
2022/05/18 07:51:23;;;;;;;9.75;1.50;;;;;;;;;;5094128;28;20467;-68
2022/05/18 07:53:49;;;;;;;11.88;1.50;;;614.50;1228.80;;;;;;5095654;28;20443;-69
2022/05/18 07:56:15;;;;;;;4.90;1.10;;;589.20;1228.80;;;;;;5095668;28;20455;-69
2022/05/18 07:58:41;;;;;;;5.53;1.58;;;564.10;1254.40;;;;;;5096108;28;20456;-70
2022/05/18 08:01:10;;;;;;;4.28;1.10;;;589.20;1254.40;;;;;;5096437;28;20486;-69
2022/05/18 08:03:36;;;;;;;5.30;1.20;;;614.70;1177.60;;;;;;5078478;28;20852;-68
2022/05/18 08:06:02;;;;;;;6.20;1.10;;;614.90;1177.60;;;;;;5096050;28;20377;-69
2022/05/18 08:08:28;;;;;;;9.38;1.50;;;640.00;1152.00;;;;;;5096226;28;20456;-70
2022/05/18 08:16:25;;;;;;;8.00;1.30;;;;;;;;;;5096236;28;20372;-69
2022/05/18 08:18:51;;;;;;;7.57;1.30;;;;;;;;;;5095602;28;20479;-69
2022/05/18 08:21:18;;;;;;;6.65;1.17;;;;;;;;;;5095924;28;20710;-69
2022/05/18 08:23:44;;;;;;;4.10;1.20;;;;;;;;;;5096086;28;20360;-69
2022/05/18 08:26:11;;;;;;;4.95;1.15;;;;;;;;;;5095748;28;20378;-68
2022/05/18 08:28:37;;;;;;;7.07;1.20;;;;;;;;;;5095694;28;20361;-69
2022/05/18 08:31:04;;;;;;;6.97;1.13;;;;;;;;;;5095656;28;20433;-69
2022/05/18 08:33:34;;;;;;;4.38;1.20;;;;;;;;;;5096183;28;20403;-69
2022/05/18 08:36:05;;;;;;;6.93;1.27;;;640.00;1049.60;;;;;;5095840;28;20502;-67
2022/05/18 08:38:31;;;;;;;5.72;1.10;;;640.00;998.40;;;;;;5077911;28;20380;-71
2022/05/18 08:41:14;;;;;;;8.02;1.40;;;640.30;1024.00;;;;;;5095403;28;20384;-69
2022/05/18 08:43:50;;;;;;;7.20;1.50;;;;;;;;;;5077194;28;20797;-69
2022/05/18 08:46:18;;;;;;;5.68;1.10;;;;;;;;;;5095213;28;20425;-70
2022/05/18 08:48:51;;;;;;;7.00;1.20;;;;;;;;;;5095565;28;20890;-69
2022/05/18 08:51:38;;;;;;;14.75;1.48;;;;;;;;;;5095198;28;20793;-70
2022/05/18 08:54:04;;;;;;;9.50;1.30;;;;;;;;;;5094258;28;20430;-70
2022/05/18 08:56:33;;;;;;;10.68;1.17;;;;;;;;;;5094660;28;20862;-69
2022/05/18 08:59:00;;;;;;;16.05;1.50;;;;;;;;;;5094514;28;20380;-70
2022/05/18 09:01:47;;;;;;;4.38;1.20;;;640.40;921.60;;;;;;5094667;28;20464;-68
2022/05/18 09:04:36;;;;;;;9.15;1.10;;;640.30;947.20;;;;;;5094141;28;20864;-68
2022/05/18 09:07:07;;;;;;;9.73;1.52;;;640.20;998.40;;;;;;5093054;28;20364;-69
2022/05/18 09:12:39;;;;;;;8.85;1.52;;;640.30;972.80;;;;;;5092589;28;20340;-68
2022/05/18 09:15:07;;;;;;;3.53;1.10;;;640.10;921.60;;;;;;5094317;28;20426;-69
2022/05/18 09:18:01;;;;;;;6.72;1.30;;;615.00;947.20;;;;;;5091896;28;20775;-67
2022/05/18 09:21:09;;;;;;;27.85;1.98;;;640.10;972.80;;;;;;5091609;28;20449;-68
2022/05/18 09:23:48;;;;;;;6.80;1.30;;;640.00;921.60;;;;;;5083580;28;20377;-68
2022/05/18 09:26:55;;;;;;;5.70;1.10;;;640.70;896.00;;;;;;5094071;28;20516;-68
2022/05/18 09:29:46;;;;;;;5.28;1.23;;;615.30;921.60;;;;;;5021133;28;20392;-70
2022/05/18 09:32:20;;;;;;;12.13;2.60;;;615.00;947.20;;;;;;5022015;28;20386;-68
2022/05/18 09:35:05;;;;;;;5.38;1.10;;;640.00;921.60;;;;;;5022079;28;20883;-69
2022/05/18 09:37:44;;;;;;;8.60;1.30;;;640.40;896.00;;;;;;5021548;28;20416;-68
2022/05/18 09:40:35;;;;;;;6.75;1.73;;;640.20;921.60;;;;;;5019259;28;20407;-70
2022/05/18 09:43:03;;;;;;;9.25;1.30;;;640.50;896.00;;;;;;5016360;28;20434;-70
2022/05/18 09:45:33;;;;;;;7.07;1.65;;;640.30;921.60;;;;;;5020498;28;20419;-69
2022/05/18 09:48:07;;;;;;;7.13;1.30;;;665.60;921.60;;;;;;5021159;28;20369;-69
2022/05/18 09:50:36;;;;;;;7.50;1.10;;;640.30;896.00;;;;;;5018503;28;20395;-69
2022/05/18 09:53:02;;;;;;;9.52;1.30;;;615.30;921.60;;;;;;5020593;28;20374;-68
2022/05/18 09:55:28;;;;;;;;;;;;;;;;;;5023871;28;20032;-69
2022/05/18 09:57:54;;;;;;;;;;;;;;;;;;5018583;28;19928;-68
2022/05/18 10:00:20;;;;;;;;;;;;;;;;;;5013427;28;20033;-69
2022/05/18 10:08:16;;;;;;;;;;;;;;;;;;5094026;28;19915;-69
2022/05/18 10:10:42;;;;;;;;;;;640.70;896.00;;;;;;5093697;28;19904;-69
2022/05/18 10:13:17;;;;;;;;;;;615.30;896.00;;;;;;5093242;28;20032;-69
2022/05/18 10:15:58;;;;;;;;;;;614.70;921.60;;;;;;5092837;28;19995;-68
2022/05/18 10:18:42;;;;;;;;;;;614.90;896.00;;;;;;5093367;28;19911;-67
2022/05/18 10:21:16;;;;;;;;;;;615.10;896.00;;;;;;5094580;28;19912;-69
2022/05/18 10:23:51;;;;;;;;;;;640.30;896.00;;;;;;5094973;28;19949;-69
2022/05/18 10:26:23;;;;;;;;;;;615.30;896.00;;;;;;5095279;28;20276;-69
2022/05/18 10:28:55;;;;;;;;;;;640.20;870.40;;;;;;5094317;28;19908;-70
2022/05/18 10:31:29;;;;;;;;;;;640.40;870.40;;;;;;5095041;28;20249;-71
2022/05/18 10:34:07;;;;;;;;;;;640.30;844.80;;;;;;5095200;28;19908;-70
2022/05/18 10:36:48;;;;;;;;;;;640.10;844.80;;;;;;5114346;27;19938;-68
2022/05/18 10:39:28;;;;;;;;;;;640.10;844.80;;;;;;5122593;28;20381;-69
2022/05/18 10:41:54;;;;;;;;;;;640.00;870.40;;;;;;5120863;28;19961;-70
2022/05/18 10:44:21;;;;;;;;;;;640.00;844.80;;;;;;5122435;28;20333;-69
2022/05/18 10:46:48;;;;;;;;;;;615.30;844.80;;;;;;5113995;28;19942;-69
2022/05/18 10:49:26;;;;;;;;;;;640.20;844.80;;;;;;5111526;28;19912;-69
2022/05/18 10:51:51;;;;;;;;;;;640.10;870.40;;;;;;5111170;28;19915;-69
2022/05/18 10:54:21;;;;;;;;;;;640.20;819.20;;;;;;5111040;28;19982;-68
2022/05/18 10:56:47;;;;;;;;;;;615.10;870.40;;;;;;5111057;28;19908;-70
2022/05/18 10:59:31;;;;;;;;;;;615.20;844.80;;;;;;5114128;28;20024;-69
2022/05/18 11:02:17;;;;;;;;;;;615.30;844.80;;;;;;5111316;28;19965;-69
2022/05/18 11:04:58;;;;;;;;;;;615.30;793.60;;;;;;5113445;28;19984;-69
2022/05/18 11:07:25;;;;;;;;;;;640.10;819.20;;;;;;5119163;27;19912;-69
2022/05/18 11:09:50;;;;;;;;;;;640.00;768.00;;;;;;5119022;28;19912;-68
2022/05/18 11:12:24;;;;;;;;;;;640.00;819.20;;;;;;5116203;28;19920;-69
2022/05/18 11:14:58;;;;;;;;;;;640.00;793.60;;;;;;5118342;28;19920;-68
2022/05/18 11:17:42;;;;;;;;;;;615.30;819.20;;;;;;5116874;28;20369;-68
2022/05/18 11:20:16;;;;;;;;;;;640.00;819.20;;;;;;5109405;28;19944;-69
2022/05/18 11:22:54;;;;;;;;;;;615.30;793.60;;;;;;5090792;28;19916;-69
2022/05/18 11:25:22;;;;;;;;;;;640.00;793.60;;;;;;5109041;28;20054;-69
2022/05/18 11:27:48;;;;;;;;;;;640.10;742.40;;;;;;5110289;28;19947;-68
2022/05/18 11:30:14;;;;;;;;;;;640.10;716.80;;;;;;5110346;28;19919;-69
2022/05/18 11:32:44;;;;;;;;;;;640.20;742.40;;;;;;5110256;28;20365;-69
2022/05/18 11:35:29;;;;;;;;;;;640.20;742.40;;;;;;5107757;28;19927;-70
2022/05/18 11:37:58;;;;;;;;;;;640.30;716.80;;;;;;5097256;28;19908;-70
2022/05/18 11:40:30;;;;;;;;;;;640.20;742.40;;;;;;5110052;28;19954;-69
2022/05/18 11:42:55;;;;;;;;;;;640.30;742.40;;;;;;5110132;28;19969;-68
2022/05/18 11:45:21;;;;;;;;;;;640.60;716.80;;;;;;5110097;28;19908;-68
2022/05/18 11:47:55;;;;;;;;;;;640.70;691.20;;;;;;5098021;28;19909;-67
2022/05/18 11:50:40;;;;;;;;;;;640.70;691.20;;;;;;5096264;28;19909;-67
2022/05/18 11:53:14;;;;;;;;;;;640.40;665.60;;;;;;5093677;28;19961;-69
2022/05/18 11:55:40;;;;;;;;;;;640.70;665.60;;;;;;5096182;28;19923;-68
2022/05/18 11:58:15;;;;;;;;;;;640.70;665.60;;;;;;5095134;28;20280;-68
2022/05/18 12:03:17;;;;;;;;;;;665.60;691.20;;;;;;5096593;28;20102;-71
2022/05/18 12:05:49;;;;;;;;;;;640.70;665.60;;;;;;5096076;28;19912;-68
2022/05/18 12:08:25;;;;;;;;;;;640.50;640.00;;;;;;5093902;28;20284;-68
2022/05/18 12:10:54;;;;;;;;;;;640.70;665.60;;;;;;5092108;28;20384;-68
2022/05/18 12:13:29;;;;;;;;;;;640.80;640.00;;;;;;5095859;28;19908;-68
2022/05/18 12:15:55;;;;;;;;;;;640.80;665.60;;;;;;5093780;28;20369;-68
2022/05/18 12:18:20;;;;;;;;;;;640.80;640.00;;;;;;5095935;28;19916;-68
2022/05/18 12:20:49;;;;;;;;;;;640.80;640.00;;;;;;5095762;28;19908;-69
2022/05/18 12:23:17;;;;;;;;;;;640.90;640.00;;;;;;5095523;28;19912;-69
2022/05/18 12:25:43;;;;;;;;;;;665.70;640.00;;;;;;5096080;28;20053;-68
2022/05/18 12:28:09;;;;;;;;;;;665.70;665.60;;;;;;5096324;28;19952;-69
2022/05/18 12:30:36;;;;;;;;;;;665.70;665.60;;;;;;5095360;28;19978;-69
2022/05/18 12:33:03;;;;;;;;;;;665.70;691.20;;;;;;5095598;28;19912;-68
2022/05/18 12:35:56;;;;;;;;;;;665.60;691.20;;;;;;5092518;28;20456;-67
2022/05/18 12:38:25;;;;;;;;;;;665.70;665.60;;;;;;5093318;28;19912;-69
2022/05/18 12:40:52;;;;;;;;;;;665.70;640.00;;;;;;5095506;28;19912;-68
2022/05/18 12:43:31;;;;;;;;;;;665.80;640.00;;;;;;5095236;28;20478;-68
2022/05/18 12:46:03;;;;;;;;;;;666.00;640.00;;;;;;5096062;28;20349;-68
2022/05/18 12:48:46;;;;;;;;;;;666.10;640.00;;;;;;5095423;28;19974;-69
2022/05/18 12:51:41;;;;;;;;;;;666.40;665.60;;;;;;5095602;28;19916;-69
2022/05/18 12:54:10;;;;;;;;;;;666.30;665.60;;;;;;5090302;28;20483;-69
2022/05/18 12:56:35;;;;;;;;;;;666.30;665.60;;;;;;5095363;28;19916;-70
2022/05/18 12:59:05;;;;;;;;;;;666.00;665.60;;;;;;5094123;28;19913;-69
2022/05/18 13:01:34;;;;;;;;;;;666.00;665.60;;;;;;5092490;28;19908;-69
2022/05/18 13:04:06;;;;;;;;;;;666.30;691.20;;;;;;5095229;28;20277;-68
2022/05/18 13:06:39;;;;;;;;;;;666.30;691.20;;;;;;5092399;28;20327;-68
2022/05/18 13:09:28;;;;;;;;;;;666.30;691.20;;;;;;5094744;28;20283;-67
2022/05/18 13:11:58;;;;;;;;;;;666.10;691.20;;;;;;5089523;28;19967;-69
2022/05/18 13:14:29;;;;;;;;;;;666.20;691.20;;;;;;5094639;28;19998;-68
2022/05/18 13:16:54;;;;;;;;;;;666.20;691.20;;;;;;5092595;28;19908;-66
2022/05/18 13:19:23;;;;;;;;;;;666.20;691.20;;;;;;5095327;28;19915;-68